sensor_id;sensor_type;location;lat;lon;timestamp;P1;durP1;ratioP1;P2;durP2;ratioP2
6626;SDS011;3349;49.830;8.748;2024-01-15T00:00:51;34.40;;;14.83;;
6626;SDS011;3349;49.830;8.748;2024-01-15T00:03:19;33.27;;;13.67;;
6626;SDS011;3349;49.830;8.748;2024-01-15T00:05:45;33.03;;;13.63;;
6626;SDS011;3349;49.830;8.748;2024-01-15T00:08:12;34.60;;;15.57;;
6626;SDS011;3349;49.830;8.748;2024-01-15T00:10:39;31.93;;;13.33;;
6626;SDS011;3349;49.830;8.748;2024-01-15T00:13:07;37.03;;;15.23;;
6626;SDS011;3349;49.830;8.748;2024-01-15T00:15:33;32.57;;;14.20;;
6626;SDS011;3349;49.830;8.748;2024-01-15T00:18:00;33.80;;;14.13;;
6626;SDS011;3349;49.830;8.748;2024-01-15T00:20:28;32.30;;;13.80;;
6626;SDS011;3349;49.830;8.748;2024-01-15T00:22:55;32.40;;;15.00;;
6626;SDS011;3349;49.830;8.748;2024-01-15T00:25:21;29.60;;;13.93;;
6626;SDS011;3349;49.830;8.748;2024-01-15T00:27:48;37.23;;;15.13;;
6626;SDS011;3349;49.830;8.748;2024-01-15T00:30:15;29.73;;;14.23;;
6626;SDS011;3349;49.830;8.748;2024-01-15T00:32:42;35.13;;;15.50;;
6626;SDS011;3349;49.830;8.748;2024-01-15T00:35:09;33.80;;;13.17;;
6626;SDS011;3349;49.830;8.748;2024-01-15T00:37:37;35.13;;;14.90;;
6626;SDS011;3349;49.830;8.748;2024-01-15T00:40:05;35.13;;;15.27;;
6626;SDS011;3349;49.830;8.748;2024-01-15T00:42:32;29.13;;;14.33;;
6626;SDS011;3349;49.830;8.748;2024-01-15T00:44:59;33.67;;;15.20;;
6626;SDS011;3349;49.830;8.748;2024-01-15T00:47:26;33.77;;;12.37;;
6626;SDS011;3349;49.830;8.748;2024-01-15T00:49:52;28.53;;;13.37;;
6626;SDS011;3349;49.830;8.748;2024-01-15T00:52:19;31.23;;;14.50;;
6626;SDS011;3349;49.830;8.748;2024-01-15T00:54:47;30.07;;;13.47;;
6626;SDS011;3349;49.830;8.748;2024-01-15T00:57:14;28.60;;;12.90;;
6626;SDS011;3349;49.830;8.748;2024-01-15T00:59:40;32.30;;;14.03;;
6626;SDS011;3349;49.830;8.748;2024-01-15T01:02:07;31.80;;;13.23;;
6626;SDS011;3349;49.830;8.748;2024-01-15T01:04:34;37.13;;;14.07;;
6626;SDS011;3349;49.830;8.748;2024-01-15T01:07:00;33.67;;;14.27;;
6626;SDS011;3349;49.830;8.748;2024-01-15T01:09:27;34.13;;;13.77;;
6626;SDS011;3349;49.830;8.748;2024-01-15T01:11:56;28.83;;;13.27;;
6626;SDS011;3349;49.830;8.748;2024-01-15T01:14:23;30.50;;;14.07;;
6626;SDS011;3349;49.830;8.748;2024-01-15T01:16:49;31.03;;;14.47;;
6626;SDS011;3349;49.830;8.748;2024-01-15T01:19:16;33.33;;;13.97;;
6626;SDS011;3349;49.830;8.748;2024-01-15T01:21:43;33.07;;;14.20;;
6626;SDS011;3349;49.830;8.748;2024-01-15T01:24:09;31.47;;;14.30;;
6626;SDS011;3349;49.830;8.748;2024-01-15T01:26:36;26.57;;;11.50;;
6626;SDS011;3349;49.830;8.748;2024-01-15T01:29:04;31.27;;;13.83;;
6626;SDS011;3349;49.830;8.748;2024-01-15T01:31:31;33.03;;;13.93;;
6626;SDS011;3349;49.830;8.748;2024-01-15T01:33:57;33.07;;;13.70;;
6626;SDS011;3349;49.830;8.748;2024-01-15T01:36:24;30.30;;;13.73;;
6626;SDS011;3349;49.830;8.748;2024-01-15T01:38:51;33.27;;;13.83;;
6626;SDS011;3349;49.830;8.748;2024-01-15T01:41:18;36.87;;;14.07;;
6626;SDS011;3349;49.830;8.748;2024-01-15T01:43:44;29.97;;;13.90;;
6626;SDS011;3349;49.830;8.748;2024-01-15T01:46:12;33.30;;;14.20;;
6626;SDS011;3349;49.830;8.748;2024-01-15T01:48:39;38.57;;;14.70;;
6626;SDS011;3349;49.830;8.748;2024-01-15T01:51:06;34.33;;;13.73;;
6626;SDS011;3349;49.830;8.748;2024-01-15T01:53:33;33.80;;;14.53;;
6626;SDS011;3349;49.830;8.748;2024-01-15T01:56:05;28.17;;;13.70;;
6626;SDS011;3349;49.830;8.748;2024-01-15T01:58:34;30.17;;;13.37;;
6626;SDS011;3349;49.830;8.748;2024-01-15T02:01:00;31.60;;;12.50;;
6626;SDS011;3349;49.830;8.748;2024-01-15T02:03:29;31.87;;;13.90;;
6626;SDS011;3349;49.830;8.748;2024-01-15T02:05:57;30.67;;;13.97;;
6626;SDS011;3349;49.830;8.748;2024-01-15T02:08:24;34.75;;;15.30;;
6626;SDS011;3349;49.830;8.748;2024-01-15T02:10:52;30.00;;;14.17;;
6626;SDS011;3349;49.830;8.748;2024-01-15T02:13:19;27.67;;;12.60;;
6626;SDS011;3349;49.830;8.748;2024-01-15T02:15:46;34.40;;;14.27;;
6626;SDS011;3349;49.830;8.748;2024-01-15T02:18:14;32.60;;;13.97;;
6626;SDS011;3349;49.830;8.748;2024-01-15T02:20:42;30.87;;;13.33;;
6626;SDS011;3349;49.830;8.748;2024-01-15T02:23:11;38.97;;;13.50;;
6626;SDS011;3349;49.830;8.748;2024-01-15T02:25:39;32.03;;;14.00;;
6626;SDS011;3349;49.830;8.748;2024-01-15T02:28:07;28.53;;;13.17;;
6626;SDS011;3349;49.830;8.748;2024-01-15T02:30:36;31.97;;;13.10;;
6626;SDS011;3349;49.830;8.748;2024-01-15T02:33:04;28.10;;;11.23;;
6626;SDS011;3349;49.830;8.748;2024-01-15T02:35:31;34.03;;;14.17;;
6626;SDS011;3349;49.830;8.748;2024-01-15T02:37:58;28.73;;;13.03;;
6626;SDS011;3349;49.830;8.748;2024-01-15T02:40:26;36.07;;;13.87;;
6626;SDS011;3349;49.830;8.748;2024-01-15T02:42:53;32.33;;;12.90;;
6626;SDS011;3349;49.830;8.748;2024-01-15T02:45:19;27.77;;;11.40;;
6626;SDS011;3349;49.830;8.748;2024-01-15T02:47:46;24.43;;;10.93;;
6626;SDS011;3349;49.830;8.748;2024-01-15T02:50:13;32.37;;;13.13;;
6626;SDS011;3349;49.830;8.748;2024-01-15T02:52:40;28.97;;;13.40;;
6626;SDS011;3349;49.830;8.748;2024-01-15T02:55:08;33.57;;;13.47;;
6626;SDS011;3349;49.830;8.748;2024-01-15T02:57:36;30.60;;;13.17;;
6626;SDS011;3349;49.830;8.748;2024-01-15T03:00:03;29.27;;;14.00;;
6626;SDS011;3349;49.830;8.748;2024-01-15T03:02:30;30.33;;;12.77;;
6626;SDS011;3349;49.830;8.748;2024-01-15T03:04:57;26.30;;;12.53;;
6626;SDS011;3349;49.830;8.748;2024-01-15T03:07:24;32.43;;;12.77;;
6626;SDS011;3349;49.830;8.748;2024-01-15T03:09:50;31.37;;;11.73;;
6626;SDS011;3349;49.830;8.748;2024-01-15T03:12:17;26.33;;;12.90;;
6626;SDS011;3349;49.830;8.748;2024-01-15T03:14:45;30.23;;;13.07;;
6626;SDS011;3349;49.830;8.748;2024-01-15T03:17:12;28.90;;;13.10;;
6626;SDS011;3349;49.830;8.748;2024-01-15T03:19:38;27.10;;;12.50;;
6626;SDS011;3349;49.830;8.748;2024-01-15T03:22:05;31.67;;;13.07;;
6626;SDS011;3349;49.830;8.748;2024-01-15T03:24:33;28.57;;;11.60;;
6626;SDS011;3349;49.830;8.748;2024-01-15T03:27:00;29.27;;;12.90;;
6626;SDS011;3349;49.830;8.748;2024-01-15T03:29:27;29.27;;;12.80;;
6626;SDS011;3349;49.830;8.748;2024-01-15T03:31:55;26.40;;;12.37;;
6626;SDS011;3349;49.830;8.748;2024-01-15T03:34:22;29.90;;;12.07;;
6626;SDS011;3349;49.830;8.748;2024-01-15T03:36:48;26.90;;;12.10;;
6626;SDS011;3349;49.830;8.748;2024-01-15T03:39:15;30.63;;;13.40;;
6626;SDS011;3349;49.830;8.748;2024-01-15T03:41:42;28.10;;;12.33;;
6626;SDS011;3349;49.830;8.748;2024-01-15T03:44:08;28.87;;;13.20;;
6626;SDS011;3349;49.830;8.748;2024-01-15T03:46:35;27.13;;;12.17;;
6626;SDS011;3349;49.830;8.748;2024-01-15T03:49:03;26.93;;;12.43;;
6626;SDS011;3349;49.830;8.748;2024-01-15T03:51:30;29.40;;;12.43;;
6626;SDS011;3349;49.830;8.748;2024-01-15T03:53:56;27.10;;;12.43;;
6626;SDS011;3349;49.830;8.748;2024-01-15T03:56:23;27.60;;;12.53;;
6626;SDS011;3349;49.830;8.748;2024-01-15T03:58:50;24.63;;;12.53;;
6626;SDS011;3349;49.830;8.748;2024-01-15T04:01:16;27.30;;;11.23;;
6626;SDS011;3349;49.830;8.748;2024-01-15T04:03:43;29.27;;;11.67;;
6626;SDS011;3349;49.830;8.748;2024-01-15T04:06:11;27.70;;;11.73;;
6626;SDS011;3349;49.830;8.748;2024-01-15T04:08:38;31.33;;;13.37;;
6626;SDS011;3349;49.830;8.748;2024-01-15T04:11:04;37.33;;;12.20;;
6626;SDS011;3349;49.830;8.748;2024-01-15T04:13:32;24.03;;;12.23;;
6626;SDS011;3349;49.830;8.748;2024-01-15T04:15:59;28.87;;;11.67;;
6626;SDS011;3349;49.830;8.748;2024-01-15T04:18:26;26.20;;;12.17;;
6626;SDS011;3349;49.830;8.748;2024-01-15T04:20:53;31.10;;;12.43;;
6626;SDS011;3349;49.830;8.748;2024-01-15T04:23:21;27.20;;;12.77;;
6626;SDS011;3349;49.830;8.748;2024-01-15T04:25:52;26.10;;;11.67;;
6626;SDS011;3349;49.830;8.748;2024-01-15T04:28:19;24.33;;;11.10;;
6626;SDS011;3349;49.830;8.748;2024-01-15T04:30:46;25.67;;;11.23;;
6626;SDS011;3349;49.830;8.748;2024-01-15T04:33:12;24.27;;;10.83;;
6626;SDS011;3349;49.830;8.748;2024-01-15T04:35:39;24.03;;;10.97;;
6626;SDS011;3349;49.830;8.748;2024-01-15T04:38:06;26.73;;;11.30;;
6626;SDS011;3349;49.830;8.748;2024-01-15T04:40:34;24.93;;;10.53;;
6626;SDS011;3349;49.830;8.748;2024-01-15T04:43:00;25.40;;;12.60;;
6626;SDS011;3349;49.830;8.748;2024-01-15T04:45:27;28.23;;;11.63;;
6626;SDS011;3349;49.830;8.748;2024-01-15T04:47:54;29.47;;;11.07;;
6626;SDS011;3349;49.830;8.748;2024-01-15T04:50:21;27.80;;;12.37;;
6626;SDS011;3349;49.830;8.748;2024-01-15T04:52:49;26.13;;;11.10;;
6626;SDS011;3349;49.830;8.748;2024-01-15T04:55:15;25.97;;;11.77;;
6626;SDS011;3349;49.830;8.748;2024-01-15T04:57:43;24.53;;;11.03;;
6626;SDS011;3349;49.830;8.748;2024-01-15T05:00:10;23.77;;;11.10;;
6626;SDS011;3349;49.830;8.748;2024-01-15T05:02:38;21.70;;;10.13;;
6626;SDS011;3349;49.830;8.748;2024-01-15T05:05:05;23.30;;;10.83;;
6626;SDS011;3349;49.830;8.748;2024-01-15T05:07:32;26.37;;;11.37;;
6626;SDS011;3349;49.830;8.748;2024-01-15T05:09:59;22.63;;;11.03;;
6626;SDS011;3349;49.830;8.748;2024-01-15T05:12:25;25.70;;;10.90;;
6626;SDS011;3349;49.830;8.748;2024-01-15T05:14:53;27.60;;;10.93;;
6626;SDS011;3349;49.830;8.748;2024-01-15T05:17:20;25.60;;;11.70;;
6626;SDS011;3349;49.830;8.748;2024-01-15T05:19:47;27.17;;;11.00;;
6626;SDS011;3349;49.830;8.748;2024-01-15T05:22:13;24.30;;;11.30;;
6626;SDS011;3349;49.830;8.748;2024-01-15T05:24:40;24.60;;;11.03;;
6626;SDS011;3349;49.830;8.748;2024-01-15T05:27:07;25.47;;;11.40;;
6626;SDS011;3349;49.830;8.748;2024-01-15T05:29:33;29.63;;;12.63;;
6626;SDS011;3349;49.830;8.748;2024-01-15T05:32:01;26.53;;;12.43;;
6626;SDS011;3349;49.830;8.748;2024-01-15T05:34:28;24.60;;;12.07;;
6626;SDS011;3349;49.830;8.748;2024-01-15T05:36:55;22.10;;;11.00;;
6626;SDS011;3349;49.830;8.748;2024-01-15T05:39:21;26.23;;;12.20;;
6626;SDS011;3349;49.830;8.748;2024-01-15T05:41:48;23.13;;;11.03;;
6626;SDS011;3349;49.830;8.748;2024-01-15T05:44:14;26.30;;;11.80;;
6626;SDS011;3349;49.830;8.748;2024-01-15T05:46:41;24.67;;;11.20;;
6626;SDS011;3349;49.830;8.748;2024-01-15T05:49:09;28.67;;;11.57;;
6626;SDS011;3349;49.830;8.748;2024-01-15T05:51:36;26.00;;;11.70;;
6626;SDS011;3349;49.830;8.748;2024-01-15T05:54:02;26.07;;;11.67;;
6626;SDS011;3349;49.830;8.748;2024-01-15T05:56:29;25.20;;;12.03;;
6626;SDS011;3349;49.830;8.748;2024-01-15T05:58:56;27.30;;;11.93;;
6626;SDS011;3349;49.830;8.748;2024-01-15T06:01:23;24.53;;;10.57;;
6626;SDS011;3349;49.830;8.748;2024-01-15T06:03:49;23.50;;;11.40;;
6626;SDS011;3349;49.830;8.748;2024-01-15T06:06:17;24.67;;;11.37;;
6626;SDS011;3349;49.830;8.748;2024-01-15T06:08:44;29.17;;;12.87;;
6626;SDS011;3349;49.830;8.748;2024-01-15T06:11:10;27.50;;;12.00;;
6626;SDS011;3349;49.830;8.748;2024-01-15T06:13:37;28.10;;;13.13;;
6626;SDS011;3349;49.830;8.748;2024-01-15T06:16:11;24.63;;;11.73;;
6626;SDS011;3349;49.830;8.748;2024-01-15T06:18:39;25.10;;;12.43;;
6626;SDS011;3349;49.830;8.748;2024-01-15T06:21:06;28.00;;;12.87;;
6626;SDS011;3349;49.830;8.748;2024-01-15T06:23:36;28.27;;;12.07;;
6626;SDS011;3349;49.830;8.748;2024-01-15T06:26:03;25.97;;;11.27;;
6626;SDS011;3349;49.830;8.748;2024-01-15T06:28:30;33.30;;;13.07;;
6626;SDS011;3349;49.830;8.748;2024-01-15T06:30:57;25.67;;;12.93;;
6626;SDS011;3349;49.830;8.748;2024-01-15T06:33:24;25.57;;;12.57;;
6626;SDS011;3349;49.830;8.748;2024-01-15T06:35:50;24.93;;;12.17;;
6626;SDS011;3349;49.830;8.748;2024-01-15T06:38:17;25.80;;;12.03;;
6626;SDS011;3349;49.830;8.748;2024-01-15T06:40:45;25.30;;;12.00;;
6626;SDS011;3349;49.830;8.748;2024-01-15T06:43:13;31.13;;;12.90;;
6626;SDS011;3349;49.830;8.748;2024-01-15T06:45:40;27.23;;;12.73;;
6626;SDS011;3349;49.830;8.748;2024-01-15T06:48:07;27.10;;;12.77;;
6626;SDS011;3349;49.830;8.748;2024-01-15T06:50:33;25.33;;;12.00;;
6626;SDS011;3349;49.830;8.748;2024-01-15T06:53:00;26.47;;;12.40;;
6626;SDS011;3349;49.830;8.748;2024-01-15T06:55:27;25.03;;;12.10;;
6626;SDS011;3349;49.830;8.748;2024-01-15T06:57:55;22.83;;;11.53;;
6626;SDS011;3349;49.830;8.748;2024-01-15T07:00:21;21.00;;;11.20;;
6626;SDS011;3349;49.830;8.748;2024-01-15T07:02:48;28.73;;;12.03;;
6626;SDS011;3349;49.830;8.748;2024-01-15T07:05:15;30.40;;;11.73;;
6626;SDS011;3349;49.830;8.748;2024-01-15T07:07:42;25.00;;;11.73;;
6626;SDS011;3349;49.830;8.748;2024-01-15T07:10:08;24.77;;;11.47;;
6626;SDS011;3349;49.830;8.748;2024-01-15T07:12:35;23.47;;;10.93;;
6626;SDS011;3349;49.830;8.748;2024-01-15T07:15:03;22.03;;;11.13;;
6626;SDS011;3349;49.830;8.748;2024-01-15T07:17:32;20.73;;;11.57;;
6626;SDS011;3349;49.830;8.748;2024-01-15T07:19:59;22.53;;;10.83;;
6626;SDS011;3349;49.830;8.748;2024-01-15T07:22:26;23.73;;;11.23;;
6626;SDS011;3349;49.830;8.748;2024-01-15T07:24:52;20.00;;;9.57;;
6626;SDS011;3349;49.830;8.748;2024-01-15T07:27:19;22.93;;;10.83;;
6626;SDS011;3349;49.830;8.748;2024-01-15T07:29:46;25.77;;;12.53;;
6626;SDS011;3349;49.830;8.748;2024-01-15T07:32:15;32.63;;;15.10;;
6626;SDS011;3349;49.830;8.748;2024-01-15T07:34:41;26.93;;;12.67;;
6626;SDS011;3349;49.830;8.748;2024-01-15T07:37:08;25.93;;;12.33;;
6626;SDS011;3349;49.830;8.748;2024-01-15T07:39:35;26.97;;;12.33;;
6626;SDS011;3349;49.830;8.748;2024-01-15T07:42:02;22.83;;;12.30;;
6626;SDS011;3349;49.830;8.748;2024-01-15T07:44:28;23.83;;;12.83;;
6626;SDS011;3349;49.830;8.748;2024-01-15T07:46:55;25.17;;;12.57;;
6626;SDS011;3349;49.830;8.748;2024-01-15T07:49:23;32.17;;;14.80;;
6626;SDS011;3349;49.830;8.748;2024-01-15T07:51:50;24.57;;;11.70;;
6626;SDS011;3349;49.830;8.748;2024-01-15T07:54:16;27.67;;;12.53;;
6626;SDS011;3349;49.830;8.748;2024-01-15T07:56:53;28.80;;;14.00;;
6626;SDS011;3349;49.830;8.748;2024-01-15T07:59:20;27.73;;;13.07;;
6626;SDS011;3349;49.830;8.748;2024-01-15T08:01:46;24.60;;;11.87;;
6626;SDS011;3349;49.830;8.748;2024-01-15T08:04:13;25.17;;;12.57;;
6626;SDS011;3349;49.830;8.748;2024-01-15T08:06:41;24.53;;;11.63;;
6626;SDS011;3349;49.830;8.748;2024-01-15T08:09:08;26.20;;;12.40;;
6626;SDS011;3349;49.830;8.748;2024-01-15T08:11:34;22.87;;;12.13;;
6626;SDS011;3349;49.830;8.748;2024-01-15T08:14:01;22.03;;;11.73;;
6626;SDS011;3349;49.830;8.748;2024-01-15T08:16:28;23.20;;;11.87;;
6626;SDS011;3349;49.830;8.748;2024-01-15T08:18:55;24.27;;;12.70;;
6626;SDS011;3349;49.830;8.748;2024-01-15T08:21:21;27.70;;;13.13;;
6626;SDS011;3349;49.830;8.748;2024-01-15T08:23:50;25.23;;;12.43;;
6626;SDS011;3349;49.830;8.748;2024-01-15T08:26:17;27.40;;;12.37;;
6626;SDS011;3349;49.830;8.748;2024-01-15T08:28:43;28.67;;;12.67;;
6626;SDS011;3349;49.830;8.748;2024-01-15T08:31:10;26.60;;;12.70;;
6626;SDS011;3349;49.830;8.748;2024-01-15T08:33:37;28.00;;;13.10;;
6626;SDS011;3349;49.830;8.748;2024-01-15T08:36:04;23.30;;;12.87;;
6626;SDS011;3349;49.830;8.748;2024-01-15T08:38:30;22.57;;;12.27;;
6626;SDS011;3349;49.830;8.748;2024-01-15T08:40:58;25.67;;;12.90;;
6626;SDS011;3349;49.830;8.748;2024-01-15T08:43:25;22.47;;;12.03;;
6626;SDS011;3349;49.830;8.748;2024-01-15T08:45:52;24.43;;;12.03;;
6626;SDS011;3349;49.830;8.748;2024-01-15T08:48:19;24.87;;;12.60;;
6626;SDS011;3349;49.830;8.748;2024-01-15T08:50:45;25.13;;;12.17;;
6626;SDS011;3349;49.830;8.748;2024-01-15T08:53:12;26.37;;;12.90;;
6626;SDS011;3349;49.830;8.748;2024-01-15T08:55:39;23.10;;;12.30;;
6626;SDS011;3349;49.830;8.748;2024-01-15T08:58:08;23.80;;;12.77;;
6626;SDS011;3349;49.830;8.748;2024-01-15T09:00:35;24.00;;;12.13;;
6626;SDS011;3349;49.830;8.748;2024-01-15T09:03:02;23.77;;;13.53;;
6626;SDS011;3349;49.830;8.748;2024-01-15T09:05:29;23.50;;;12.13;;
6626;SDS011;3349;49.830;8.748;2024-01-15T09:07:56;24.10;;;12.10;;
6626;SDS011;3349;49.830;8.748;2024-01-15T09:10:22;23.77;;;12.60;;
6626;SDS011;3349;49.830;8.748;2024-01-15T09:12:49;24.60;;;12.80;;
6626;SDS011;3349;49.830;8.748;2024-01-15T09:15:17;23.30;;;12.23;;
6626;SDS011;3349;49.830;8.748;2024-01-15T09:17:45;21.67;;;12.50;;
6626;SDS011;3349;49.830;8.748;2024-01-15T09:20:12;26.80;;;13.17;;
6626;SDS011;3349;49.830;8.748;2024-01-15T09:22:38;24.70;;;13.20;;
6626;SDS011;3349;49.830;8.748;2024-01-15T09:25:06;23.23;;;11.87;;
6626;SDS011;3349;49.830;8.748;2024-01-15T09:27:34;30.13;;;13.57;;
6626;SDS011;3349;49.830;8.748;2024-01-15T09:30:01;25.67;;;13.47;;
6626;SDS011;3349;49.830;8.748;2024-01-15T09:32:29;24.50;;;12.33;;
6626;SDS011;3349;49.830;8.748;2024-01-15T09:34:56;26.97;;;13.00;;
6626;SDS011;3349;49.830;8.748;2024-01-15T09:37:23;23.10;;;12.53;;
6626;SDS011;3349;49.830;8.748;2024-01-15T09:39:49;23.63;;;13.10;;
6626;SDS011;3349;49.830;8.748;2024-01-15T09:42:16;25.17;;;12.67;;
6626;SDS011;3349;49.830;8.748;2024-01-15T09:44:43;23.93;;;12.20;;
6626;SDS011;3349;49.830;8.748;2024-01-15T09:47:11;25.77;;;11.80;;
6626;SDS011;3349;49.830;8.748;2024-01-15T09:49:40;26.27;;;12.87;;
6626;SDS011;3349;49.830;8.748;2024-01-15T09:52:07;25.63;;;12.93;;
6626;SDS011;3349;49.830;8.748;2024-01-15T09:54:35;24.60;;;12.70;;
6626;SDS011;3349;49.830;8.748;2024-01-15T09:57:03;24.57;;;13.00;;
6626;SDS011;3349;49.830;8.748;2024-01-15T09:59:31;27.90;;;14.13;;
6626;SDS011;3349;49.830;8.748;2024-01-15T10:01:58;24.63;;;13.07;;
6626;SDS011;3349;49.830;8.748;2024-01-15T10:04:26;29.63;;;15.20;;
6626;SDS011;3349;49.830;8.748;2024-01-15T10:06:54;28.10;;;15.00;;
6626;SDS011;3349;49.830;8.748;2024-01-15T10:09:23;36.47;;;17.43;;
6626;SDS011;3349;49.830;8.748;2024-01-15T10:11:50;25.43;;;13.13;;
6626;SDS011;3349;49.830;8.748;2024-01-15T10:14:17;25.73;;;14.90;;
6626;SDS011;3349;49.830;8.748;2024-01-15T10:16:43;26.07;;;12.97;;
6626;SDS011;3349;49.830;8.748;2024-01-15T10:19:10;24.57;;;12.83;;
6626;SDS011;3349;49.830;8.748;2024-01-15T10:21:37;20.47;;;11.63;;
6626;SDS011;3349;49.830;8.748;2024-01-15T10:24:05;22.40;;;13.00;;
6626;SDS011;3349;49.830;8.748;2024-01-15T10:26:32;23.33;;;13.60;;
6626;SDS011;3349;49.830;8.748;2024-01-15T10:28:59;29.57;;;12.90;;
6626;SDS011;3349;49.830;8.748;2024-01-15T10:31:26;25.97;;;13.40;;
6626;SDS011;3349;49.830;8.748;2024-01-15T10:33:53;20.83;;;13.17;;
6626;SDS011;3349;49.830;8.748;2024-01-15T10:36:22;20.57;;;11.93;;
6626;SDS011;3349;49.830;8.748;2024-01-15T10:38:48;24.00;;;13.03;;
6626;SDS011;3349;49.830;8.748;2024-01-15T10:41:16;22.63;;;12.57;;
6626;SDS011;3349;49.830;8.748;2024-01-15T10:43:43;22.73;;;12.47;;
6626;SDS011;3349;49.830;8.748;2024-01-15T10:46:10;21.23;;;12.07;;
6626;SDS011;3349;49.830;8.748;2024-01-15T10:48:37;22.63;;;12.97;;
6626;SDS011;3349;49.830;8.748;2024-01-15T10:51:05;22.20;;;12.83;;
6626;SDS011;3349;49.830;8.748;2024-01-15T10:53:35;20.17;;;11.90;;
6626;SDS011;3349;49.830;8.748;2024-01-15T10:56:04;25.30;;;12.97;;
6626;SDS011;3349;49.830;8.748;2024-01-15T10:58:34;22.83;;;11.67;;
6626;SDS011;3349;49.830;8.748;2024-01-15T11:01:01;24.93;;;12.73;;
6626;SDS011;3349;49.830;8.748;2024-01-15T11:03:29;22.13;;;11.67;;
6626;SDS011;3349;49.830;8.748;2024-01-15T11:05:56;21.43;;;11.70;;
6626;SDS011;3349;49.830;8.748;2024-01-15T11:08:24;21.80;;;11.80;;
6626;SDS011;3349;49.830;8.748;2024-01-15T11:10:51;21.77;;;12.90;;
6626;SDS011;3349;49.830;8.748;2024-01-15T11:13:20;19.00;;;11.03;;
6626;SDS011;3349;49.830;8.748;2024-01-15T11:15:58;20.73;;;11.43;;
6626;SDS011;3349;49.830;8.748;2024-01-15T11:18:27;18.93;;;11.87;;
6626;SDS011;3349;49.830;8.748;2024-01-15T11:23:47;18.73;;;10.00;;
6626;SDS011;3349;49.830;8.748;2024-01-15T11:26:28;21.60;;;11.43;;
6626;SDS011;3349;49.830;8.748;2024-01-15T11:28:59;20.67;;;11.53;;
6626;SDS011;3349;49.830;8.748;2024-01-15T11:31:30;21.80;;;11.97;;
6626;SDS011;3349;49.830;8.748;2024-01-15T11:40:37;21.43;;;11.93;;
6626;SDS011;3349;49.830;8.748;2024-01-15T11:43:07;25.73;;;12.60;;
6626;SDS011;3349;49.830;8.748;2024-01-15T11:45:34;19.77;;;10.53;;
6626;SDS011;3349;49.830;8.748;2024-01-15T11:48:12;17.07;;;9.50;;
6626;SDS011;3349;49.830;8.748;2024-01-15T11:50:40;20.30;;;10.30;;
6626;SDS011;3349;49.830;8.748;2024-01-15T11:53:09;19.37;;;11.30;;
6626;SDS011;3349;49.830;8.748;2024-01-15T11:55:43;17.00;;;10.13;;
6626;SDS011;3349;49.830;8.748;2024-01-15T11:58:11;18.47;;;10.90;;
6626;SDS011;3349;49.830;8.748;2024-01-15T12:00:40;16.63;;;10.47;;
6626;SDS011;3349;49.830;8.748;2024-01-15T12:03:09;17.30;;;10.50;;
6626;SDS011;3349;49.830;8.748;2024-01-15T12:05:37;20.07;;;11.10;;
6626;SDS011;3349;49.830;8.748;2024-01-15T12:08:05;18.40;;;10.90;;
6626;SDS011;3349;49.830;8.748;2024-01-15T12:10:35;15.87;;;9.57;;
6626;SDS011;3349;49.830;8.748;2024-01-15T12:13:04;18.02;;;10.43;;
6626;SDS011;3349;49.830;8.748;2024-01-15T12:15:32;17.08;;;10.18;;
6626;SDS011;3349;49.830;8.748;2024-01-15T12:17:59;19.05;;;10.90;;
6626;SDS011;3349;49.830;8.748;2024-01-15T12:20:27;17.58;;;10.70;;
6626;SDS011;3349;49.830;8.748;2024-01-15T12:22:56;16.33;;;10.15;;
6626;SDS011;3349;49.830;8.748;2024-01-15T12:25:23;16.48;;;10.18;;
6626;SDS011;3349;49.830;8.748;2024-01-15T12:27:52;16.55;;;10.25;;
6626;SDS011;3349;49.830;8.748;2024-01-15T12:30:19;16.35;;;9.40;;
6626;SDS011;3349;49.830;8.748;2024-01-15T12:32:45;18.93;;;10.33;;
6626;SDS011;3349;49.830;8.748;2024-01-15T12:35:13;14.27;;;8.53;;
6626;SDS011;3349;49.830;8.748;2024-01-15T12:37:40;13.90;;;9.03;;
6626;SDS011;3349;49.830;8.748;2024-01-15T12:40:10;14.80;;;8.80;;
6626;SDS011;3349;49.830;8.748;2024-01-15T12:42:37;14.60;;;8.53;;
6626;SDS011;3349;49.830;8.748;2024-01-15T12:45:05;17.93;;;9.23;;
6626;SDS011;3349;49.830;8.748;2024-01-15T12:47:33;16.17;;;9.57;;
6626;SDS011;3349;49.830;8.748;2024-01-15T12:50:00;15.17;;;8.47;;
6626;SDS011;3349;49.830;8.748;2024-01-15T12:52:27;16.83;;;9.30;;
6626;SDS011;3349;49.830;8.748;2024-01-15T12:54:54;18.87;;;10.00;;
6626;SDS011;3349;49.830;8.748;2024-01-15T12:57:22;13.83;;;8.40;;
6626;SDS011;3349;49.830;8.748;2024-01-15T12:59:49;20.17;;;10.60;;
6626;SDS011;3349;49.830;8.748;2024-01-15T13:02:16;16.93;;;9.73;;
6626;SDS011;3349;49.830;8.748;2024-01-15T13:04:43;17.30;;;9.57;;
6626;SDS011;3349;49.830;8.748;2024-01-15T13:07:10;16.27;;;9.73;;
6626;SDS011;3349;49.830;8.748;2024-01-15T13:09:37;16.80;;;9.27;;
6626;SDS011;3349;49.830;8.748;2024-01-15T13:12:03;17.63;;;9.50;;
6626;SDS011;3349;49.830;8.748;2024-01-15T13:14:32;14.03;;;8.63;;
6626;SDS011;3349;49.830;8.748;2024-01-15T13:16:59;15.40;;;9.23;;
6626;SDS011;3349;49.830;8.748;2024-01-15T13:19:26;16.50;;;9.77;;
6626;SDS011;3349;49.830;8.748;2024-01-15T13:21:53;16.70;;;9.27;;
6626;SDS011;3349;49.830;8.748;2024-01-15T13:24:21;22.47;;;12.10;;
6626;SDS011;3349;49.830;8.748;2024-01-15T13:26:48;20.23;;;11.07;;
6626;SDS011;3349;49.830;8.748;2024-01-15T13:29:15;15.80;;;8.90;;
6626;SDS011;3349;49.830;8.748;2024-01-15T13:31:43;18.00;;;10.10;;
6626;SDS011;3349;49.830;8.748;2024-01-15T13:34:11;17.90;;;9.43;;
6626;SDS011;3349;49.830;8.748;2024-01-15T13:36:38;26.23;;;13.13;;
6626;SDS011;3349;49.830;8.748;2024-01-15T13:39:04;20.67;;;12.13;;
6626;SDS011;3349;49.830;8.748;2024-01-15T13:41:33;14.57;;;9.03;;
6626;SDS011;3349;49.830;8.748;2024-01-15T13:44:00;13.03;;;8.13;;
6626;SDS011;3349;49.830;8.748;2024-01-15T13:46:28;16.20;;;9.03;;
6626;SDS011;3349;49.830;8.748;2024-01-15T13:48:56;14.73;;;7.67;;
6626;SDS011;3349;49.830;8.748;2024-01-15T13:51:23;15.20;;;8.27;;
6626;SDS011;3349;49.830;8.748;2024-01-15T13:53:50;11.60;;;7.30;;
6626;SDS011;3349;49.830;8.748;2024-01-15T13:56:18;13.00;;;8.37;;
6626;SDS011;3349;49.830;8.748;2024-01-15T13:58:44;11.77;;;7.33;;
6626;SDS011;3349;49.830;8.748;2024-01-15T14:01:12;14.73;;;8.93;;
6626;SDS011;3349;49.830;8.748;2024-01-15T14:03:39;11.93;;;7.83;;
6626;SDS011;3349;49.830;8.748;2024-01-15T14:06:07;12.50;;;7.57;;
6626;SDS011;3349;49.830;8.748;2024-01-15T14:08:35;13.47;;;8.17;;
6626;SDS011;3349;49.830;8.748;2024-01-15T14:11:02;13.97;;;8.03;;
6626;SDS011;3349;49.830;8.748;2024-01-15T14:13:31;12.30;;;7.93;;
6626;SDS011;3349;49.830;8.748;2024-01-15T14:15:57;12.27;;;7.43;;
6626;SDS011;3349;49.830;8.748;2024-01-15T14:18:24;11.13;;;6.93;;
6626;SDS011;3349;49.830;8.748;2024-01-15T14:20:52;13.77;;;7.33;;
6626;SDS011;3349;49.830;8.748;2024-01-15T14:23:20;13.57;;;7.67;;
6626;SDS011;3349;49.830;8.748;2024-01-15T14:25:48;14.13;;;7.40;;
6626;SDS011;3349;49.830;8.748;2024-01-15T14:28:14;10.90;;;6.80;;
6626;SDS011;3349;49.830;8.748;2024-01-15T14:30:41;11.93;;;6.83;;
6626;SDS011;3349;49.830;8.748;2024-01-15T14:33:08;13.67;;;7.63;;
6626;SDS011;3349;49.830;8.748;2024-01-15T14:35:35;13.47;;;6.37;;
6626;SDS011;3349;49.830;8.748;2024-01-15T14:38:02;11.83;;;6.93;;
6626;SDS011;3349;49.830;8.748;2024-01-15T14:40:30;12.80;;;7.27;;
6626;SDS011;3349;49.830;8.748;2024-01-15T14:42:57;9.83;;;6.23;;
6626;SDS011;3349;49.830;8.748;2024-01-15T14:45:24;11.37;;;6.10;;
6626;SDS011;3349;49.830;8.748;2024-01-15T14:47:52;13.00;;;6.87;;
6626;SDS011;3349;49.830;8.748;2024-01-15T14:50:19;11.90;;;6.10;;
6626;SDS011;3349;49.830;8.748;2024-01-15T14:52:45;9.57;;;5.70;;
6626;SDS011;3349;49.830;8.748;2024-01-15T14:55:12;9.17;;;5.10;;
6626;SDS011;3349;49.830;8.748;2024-01-15T14:57:40;10.35;;;6.85;;
6626;SDS011;3349;49.830;8.748;2024-01-15T15:00:07;9.27;;;5.73;;